sensor_id;sensor_type;location;lat;lon;timestamp;temperature;humidity
10868;DHT22;62667;48.698;8.762;2023-03-01T12:55:58;13.00;24.50
10868;DHT22;62667;48.698;8.762;2023-03-01T12:58:31;13.00;24.60
10868;DHT22;62667;48.698;8.762;2023-03-01T13:01:08;13.20;24.50
10868;DHT22;62667;48.698;8.762;2023-03-01T13:03:59;13.30;22.90
10868;DHT22;62667;48.698;8.762;2023-03-01T13:27:44;14.60;21.00
10868;DHT22;62667;48.698;8.762;2023-03-01T13:30:40;14.60;21.40
10868;DHT22;62667;48.698;8.762;2023-03-01T13:39:28;15.10;19.10
10868;DHT22;62667;48.698;8.762;2023-03-01T13:47:07;16.70;17.20
10868;DHT22;62667;48.698;8.762;2023-03-01T13:49:46;16.60;17.70
10868;DHT22;62667;48.698;8.762;2023-03-01T13:52:34;17.40;16.80
10868;DHT22;62667;48.698;8.762;2023-03-01T13:55:16;17.40;17.30
10868;DHT22;62667;48.698;8.762;2023-03-01T13:57:49;18.40;15.40
10868;DHT22;62667;48.698;8.762;2023-03-01T14:03:08;19.80;13.30
10868;DHT22;62667;48.698;8.762;2023-03-01T14:05:38;20.80;13.40
10868;DHT22;62667;48.698;8.762;2023-03-01T14:08:22;21.10;12.10
10868;DHT22;62667;48.698;8.762;2023-03-01T14:13:48;21.90;10.90
10868;DHT22;62667;48.698;8.762;2023-03-01T14:21:44;24.30;48.90
10868;DHT22;62667;48.698;8.762;2023-03-01T14:24:20;25.00;24.10
10868;DHT22;62667;48.698;8.762;2023-03-01T14:29:32;25.60;7.00
10868;DHT22;62667;48.698;8.762;2023-03-01T14:34:43;27.20;6.20
10868;DHT22;62667;48.698;8.762;2023-03-01T14:37:19;27.20;6.30
10868;DHT22;62667;48.698;8.762;2023-03-01T14:39:48;26.70;6.40
10868;DHT22;62667;48.698;8.762;2023-03-01T14:42:16;26.40;6.40
10868;DHT22;62667;48.698;8.762;2023-03-01T14:44:48;26.50;6.80
10868;DHT22;62667;48.698;8.762;2023-03-01T14:47:25;26.50;7.40
10868;DHT22;62667;48.698;8.762;2023-03-01T14:49:58;25.70;7.50
10868;DHT22;62667;48.698;8.762;2023-03-01T14:52:34;25.30;10.40
10868;DHT22;62667;48.698;8.762;2023-03-01T14:55:06;25.70;9.70
10868;DHT22;62667;48.698;8.762;2023-03-01T14:57:43;25.50;9.90
10868;DHT22;62667;48.698;8.762;2023-03-01T15:00:18;25.80;8.80
10868;DHT22;62667;48.698;8.762;2023-03-01T15:05:24;25.10;7.30
10868;DHT22;62667;48.698;8.762;2023-03-01T15:07:55;25.00;7.40
10868;DHT22;62667;48.698;8.762;2023-03-01T15:10:25;25.70;7.30
10868;DHT22;62667;48.698;8.762;2023-03-01T15:12:54;25.20;7.40
10868;DHT22;62667;48.698;8.762;2023-03-01T15:15:31;25.90;7.00
10868;DHT22;62667;48.698;8.762;2023-03-01T15:18:04;25.60;6.90
10868;DHT22;62667;48.698;8.762;2023-03-01T15:20:40;25.90;7.10
10868;DHT22;62667;48.698;8.762;2023-03-01T15:23:22;25.60;7.20
10868;DHT22;62667;48.698;8.762;2023-03-01T15:25:51;25.80;7.00
10868;DHT22;62667;48.698;8.762;2023-03-01T15:28:24;25.10;7.00
10868;DHT22;62667;48.698;8.762;2023-03-01T15:30:57;25.20;7.70
10868;DHT22;62667;48.698;8.762;2023-03-01T15:36:03;23.70;8.10
10868;DHT22;62667;48.698;8.762;2023-03-01T15:38:53;23.30;9.10
10868;DHT22;62667;48.698;8.762;2023-03-01T15:41:24;22.90;9.80
10868;DHT22;62667;48.698;8.762;2023-03-01T15:43:53;22.50;10.50
10868;DHT22;62667;48.698;8.762;2023-03-01T15:46:29;22.50;10.30
10868;DHT22;62667;48.698;8.762;2023-03-01T15:51:32;22.30;10.30
10868;DHT22;62667;48.698;8.762;2023-03-01T15:54:04;22.00;10.80
10868;DHT22;62667;48.698;8.762;2023-03-01T15:56:35;21.20;24.50
10868;DHT22;62667;48.698;8.762;2023-03-01T15:59:03;21.00;11.20
10868;DHT22;62667;48.698;8.762;2023-03-01T16:06:29;19.20;12.90
10868;DHT22;62667;48.698;8.762;2023-03-01T16:08:56;19.00;14.00
10868;DHT22;62667;48.698;8.762;2023-03-01T16:36:07;15.00;18.50
10868;DHT22;62667;48.698;8.762;2023-03-01T16:38:37;14.70;19.00
10868;DHT22;62667;48.698;8.762;2023-03-01T16:41:05;14.50;19.60
10868;DHT22;62667;48.698;8.762;2023-03-01T16:43:38;14.00;20.00
10868;DHT22;62667;48.698;8.762;2023-03-01T16:51:06;12.00;22.70
10868;DHT22;62667;48.698;8.762;2023-03-01T16:56:05;11.30;24.40
10868;DHT22;62667;48.698;8.762;2023-03-01T16:58:34;10.40;26.00
10868;DHT22;62667;48.698;8.762;2023-03-01T17:03:36;9.00;29.60
10868;DHT22;62667;48.698;8.762;2023-03-01T17:06:06;8.70;30.60
10868;DHT22;62667;48.698;8.762;2023-03-01T17:08:35;8.30;31.90
10868;DHT22;62667;48.698;8.762;2023-03-01T17:18:31;7.30;34.30
10868;DHT22;62667;48.698;8.762;2023-03-01T17:20:58;7.10;35.30
10868;DHT22;62667;48.698;8.762;2023-03-01T17:23:26;6.90;35.60
10868;DHT22;62667;48.698;8.762;2023-03-01T17:28:26;6.50;36.40
10868;DHT22;62667;48.698;8.762;2023-03-01T17:30:54;6.50;37.20
10868;DHT22;62667;48.698;8.762;2023-03-01T17:33:22;6.30;37.60
10868;DHT22;62667;48.698;8.762;2023-03-01T17:38:17;6.00;38.00
10868;DHT22;62667;48.698;8.762;2023-03-01T17:40:45;6.00;38.60
10868;DHT22;62667;48.698;8.762;2023-03-01T17:43:12;5.90;38.60
10868;DHT22;62667;48.698;8.762;2023-03-01T17:45:43;5.70;38.70
10868;DHT22;62667;48.698;8.762;2023-03-01T17:48:14;5.70;39.40
10868;DHT22;62667;48.698;8.762;2023-03-01T17:50:42;5.60;39.50
10868;DHT22;62667;48.698;8.762;2023-03-01T17:53:10;5.50;39.60
10868;DHT22;62667;48.698;8.762;2023-03-01T17:55:39;5.40;40.40
10868;DHT22;62667;48.698;8.762;2023-03-01T17:58:09;5.40;40.40
10868;DHT22;62667;48.698;8.762;2023-03-01T18:00:38;5.30;40.40
10868;DHT22;62667;48.698;8.762;2023-03-01T18:03:07;5.20;41.00
10868;DHT22;62667;48.698;8.762;2023-03-01T18:05:35;5.20;40.50
10868;DHT22;62667;48.698;8.762;2023-03-01T18:08:03;5.20;41.10
10868;DHT22;62667;48.698;8.762;2023-03-01T18:10:31;5.10;41.10
10868;DHT22;62667;48.698;8.762;2023-03-01T18:13:01;5.10;41.80
10868;DHT22;62667;48.698;8.762;2023-03-01T18:15:28;5.00;42.00
10868;DHT22;62667;48.698;8.762;2023-03-01T18:17:55;4.90;42.00
10868;DHT22;62667;48.698;8.762;2023-03-01T18:20:23;4.90;42.10
10868;DHT22;62667;48.698;8.762;2023-03-01T18:25:19;4.80;42.30
10868;DHT22;62667;48.698;8.762;2023-03-01T18:27:46;4.70;42.30
